sensor_id;sensor_type;location;lat;lon;timestamp;P1;durP1;ratioP1;P2;durP2;ratioP2
52057;SDS011;38063;53.210;6.504;2024-02-28T00:01:50;47.08;;;19.50;;
52057;SDS011;38063;53.210;6.504;2024-02-28T00:04:17;45.08;;;19.15;;
52057;SDS011;38063;53.210;6.504;2024-02-28T00:06:43;47.50;;;19.52;;
52057;SDS011;38063;53.210;6.504;2024-02-28T00:09:12;43.63;;;18.92;;
52057;SDS011;38063;53.210;6.504;2024-02-28T00:11:44;46.70;;;19.05;;
52057;SDS011;38063;53.210;6.504;2024-02-28T00:14:10;46.42;;;19.15;;
52057;SDS011;38063;53.210;6.504;2024-02-28T00:16:36;47.97;;;19.30;;
52057;SDS011;38063;53.210;6.504;2024-02-28T00:19:04;45.38;;;18.52;;
52057;SDS011;38063;53.210;6.504;2024-02-28T00:21:30;46.47;;;19.83;;
52057;SDS011;38063;53.210;6.504;2024-02-28T00:23:56;38.75;;;17.55;;
52057;SDS011;38063;53.210;6.504;2024-02-28T00:26:21;43.45;;;17.83;;
52057;SDS011;38063;53.210;6.504;2024-02-28T00:28:47;42.70;;;17.58;;
52057;SDS011;38063;53.210;6.504;2024-02-28T00:31:13;52.47;;;19.67;;
52057;SDS011;38063;53.210;6.504;2024-02-28T00:33:38;44.25;;;18.10;;
52057;SDS011;38063;53.210;6.504;2024-02-28T00:36:04;43.08;;;17.40;;
52057;SDS011;38063;53.210;6.504;2024-02-28T00:38:30;44.90;;;17.23;;
52057;SDS011;38063;53.210;6.504;2024-02-28T00:40:55;44.65;;;18.00;;
52057;SDS011;38063;53.210;6.504;2024-02-28T00:43:21;47.15;;;18.48;;
52057;SDS011;38063;53.210;6.504;2024-02-28T00:45:47;43.20;;;18.40;;
52057;SDS011;38063;53.210;6.504;2024-02-28T00:48:12;43.15;;;19.15;;
52057;SDS011;38063;53.210;6.504;2024-02-28T00:50:38;44.53;;;19.00;;
52057;SDS011;38063;53.210;6.504;2024-02-28T00:53:04;43.72;;;18.77;;
52057;SDS011;38063;53.210;6.504;2024-02-28T00:55:30;44.13;;;19.38;;
52057;SDS011;38063;53.210;6.504;2024-02-28T00:57:55;40.72;;;17.75;;
52057;SDS011;38063;53.210;6.504;2024-02-28T01:00:21;45.25;;;19.63;;
52057;SDS011;38063;53.210;6.504;2024-02-28T01:02:47;39.88;;;17.30;;
52057;SDS011;38063;53.210;6.504;2024-02-28T01:05:12;45.40;;;19.40;;
52057;SDS011;38063;53.210;6.504;2024-02-28T01:07:38;41.65;;;17.38;;
52057;SDS011;38063;53.210;6.504;2024-02-28T01:10:04;47.92;;;20.23;;
52057;SDS011;38063;53.210;6.504;2024-02-28T01:12:31;44.50;;;18.42;;
52057;SDS011;38063;53.210;6.504;2024-02-28T01:14:57;42.53;;;19.05;;
52057;SDS011;38063;53.210;6.504;2024-02-28T01:17:22;45.28;;;17.75;;
52057;SDS011;38063;53.210;6.504;2024-02-28T01:19:48;45.25;;;19.20;;
52057;SDS011;38063;53.210;6.504;2024-02-28T01:22:14;47.53;;;18.88;;
52057;SDS011;38063;53.210;6.504;2024-02-28T01:24:39;49.50;;;18.30;;
52057;SDS011;38063;53.210;6.504;2024-02-28T01:27:05;46.50;;;17.98;;
52057;SDS011;38063;53.210;6.504;2024-02-28T01:29:31;46.40;;;19.35;;
52057;SDS011;38063;53.210;6.504;2024-02-28T01:31:56;43.65;;;17.67;;
52057;SDS011;38063;53.210;6.504;2024-02-28T01:34:22;42.78;;;19.13;;
52057;SDS011;38063;53.210;6.504;2024-02-28T01:36:48;43.60;;;18.40;;
52057;SDS011;38063;53.210;6.504;2024-02-28T01:39:13;43.65;;;18.80;;
52057;SDS011;38063;53.210;6.504;2024-02-28T01:41:39;45.17;;;18.77;;
52057;SDS011;38063;53.210;6.504;2024-02-28T01:44:05;49.17;;;20.20;;
52057;SDS011;38063;53.210;6.504;2024-02-28T01:46:31;41.28;;;18.83;;
52057;SDS011;38063;53.210;6.504;2024-02-28T01:48:57;47.08;;;18.23;;
52057;SDS011;38063;53.210;6.504;2024-02-28T01:51:24;40.55;;;18.30;;
52057;SDS011;38063;53.210;6.504;2024-02-28T01:53:52;47.35;;;19.83;;
52057;SDS011;38063;53.210;6.504;2024-02-28T01:56:20;48.30;;;18.98;;
52057;SDS011;38063;53.210;6.504;2024-02-28T01:58:48;48.08;;;19.83;;
52057;SDS011;38063;53.210;6.504;2024-02-28T02:01:14;45.15;;;19.55;;
52057;SDS011;38063;53.210;6.504;2024-02-28T02:03:42;49.60;;;20.40;;
52057;SDS011;38063;53.210;6.504;2024-02-28T02:06:08;48.88;;;19.95;;
52057;SDS011;38063;53.210;6.504;2024-02-28T02:08:36;44.85;;;20.27;;
52057;SDS011;38063;53.210;6.504;2024-02-28T02:11:02;51.47;;;21.20;;
52057;SDS011;38063;53.210;6.504;2024-02-28T02:13:28;49.08;;;19.70;;
52057;SDS011;38063;53.210;6.504;2024-02-28T02:15:54;49.50;;;20.05;;
52057;SDS011;38063;53.210;6.504;2024-02-28T02:18:19;51.58;;;21.52;;
52057;SDS011;38063;53.210;6.504;2024-02-28T02:20:46;49.75;;;20.65;;
52057;SDS011;38063;53.210;6.504;2024-02-28T02:23:18;47.67;;;20.77;;
52057;SDS011;38063;53.210;6.504;2024-02-28T02:25:47;44.83;;;19.88;;
52057;SDS011;38063;53.210;6.504;2024-02-28T02:28:14;42.25;;;19.48;;
52057;SDS011;38063;53.210;6.504;2024-02-28T02:30:40;48.17;;;20.58;;
52057;SDS011;38063;53.210;6.504;2024-02-28T02:33:06;47.42;;;20.92;;
52057;SDS011;38063;53.210;6.504;2024-02-28T02:35:33;47.28;;;20.13;;
52057;SDS011;38063;53.210;6.504;2024-02-28T02:37:59;47.72;;;19.23;;
52057;SDS011;38063;53.210;6.504;2024-02-28T02:40:25;48.40;;;19.52;;
52057;SDS011;38063;53.210;6.504;2024-02-28T02:42:51;48.97;;;19.58;;
52057;SDS011;38063;53.210;6.504;2024-02-28T02:45:16;45.28;;;20.00;;
52057;SDS011;38063;53.210;6.504;2024-02-28T02:47:42;51.90;;;20.38;;
52057;SDS011;38063;53.210;6.504;2024-02-28T02:50:09;45.80;;;20.20;;
52057;SDS011;38063;53.210;6.504;2024-02-28T02:52:35;42.60;;;18.67;;
52057;SDS011;38063;53.210;6.504;2024-02-28T02:55:01;48.20;;;19.90;;
52057;SDS011;38063;53.210;6.504;2024-02-28T02:57:26;42.45;;;18.67;;
52057;SDS011;38063;53.210;6.504;2024-02-28T02:59:52;43.55;;;19.83;;
52057;SDS011;38063;53.210;6.504;2024-02-28T03:02:18;43.13;;;18.73;;
52057;SDS011;38063;53.210;6.504;2024-02-28T03:04:43;48.78;;;19.30;;
52057;SDS011;38063;53.210;6.504;2024-02-28T03:07:09;52.22;;;20.30;;
52057;SDS011;38063;53.210;6.504;2024-02-28T03:09:35;48.38;;;19.45;;
52057;SDS011;38063;53.210;6.504;2024-02-28T03:12:00;48.70;;;19.95;;
52057;SDS011;38063;53.210;6.504;2024-02-28T03:14:26;50.40;;;20.75;;
52057;SDS011;38063;53.210;6.504;2024-02-28T03:16:52;48.58;;;19.95;;
52057;SDS011;38063;53.210;6.504;2024-02-28T03:19:18;49.08;;;19.88;;
52057;SDS011;38063;53.210;6.504;2024-02-28T03:21:44;48.20;;;20.38;;
52057;SDS011;38063;53.210;6.504;2024-02-28T03:24:10;48.58;;;20.75;;
52057;SDS011;38063;53.210;6.504;2024-02-28T03:26:36;45.10;;;20.42;;
52057;SDS011;38063;53.210;6.504;2024-02-28T03:29:02;47.28;;;19.70;;
52057;SDS011;38063;53.210;6.504;2024-02-28T03:31:27;46.53;;;21.20;;
52057;SDS011;38063;53.210;6.504;2024-02-28T03:33:53;53.05;;;20.88;;
52057;SDS011;38063;53.210;6.504;2024-02-28T03:36:19;41.97;;;18.38;;
52057;SDS011;38063;53.210;6.504;2024-02-28T03:38:44;47.03;;;20.30;;
52057;SDS011;38063;53.210;6.504;2024-02-28T03:41:10;48.15;;;21.70;;
52057;SDS011;38063;53.210;6.504;2024-02-28T03:43:36;52.80;;;20.52;;
52057;SDS011;38063;53.210;6.504;2024-02-28T03:46:01;49.72;;;20.35;;
52057;SDS011;38063;53.210;6.504;2024-02-28T03:48:27;51.88;;;20.58;;
52057;SDS011;38063;53.210;6.504;2024-02-28T03:50:53;51.47;;;20.88;;
52057;SDS011;38063;53.210;6.504;2024-02-28T03:53:18;44.92;;;20.10;;
52057;SDS011;38063;53.210;6.504;2024-02-28T03:55:44;50.72;;;20.48;;
52057;SDS011;38063;53.210;6.504;2024-02-28T03:58:10;47.67;;;19.20;;
52057;SDS011;38063;53.210;6.504;2024-02-28T04:00:36;53.00;;;20.17;;
52057;SDS011;38063;53.210;6.504;2024-02-28T04:03:02;51.10;;;20.77;;
52057;SDS011;38063;53.210;6.504;2024-02-28T04:05:28;48.28;;;20.15;;
52057;SDS011;38063;53.210;6.504;2024-02-28T04:07:54;48.65;;;20.17;;
52057;SDS011;38063;53.210;6.504;2024-02-28T04:10:20;49.38;;;20.95;;
52057;SDS011;38063;53.210;6.504;2024-02-28T04:12:46;46.75;;;19.83;;
52057;SDS011;38063;53.210;6.504;2024-02-28T04:15:11;48.47;;;21.85;;
52057;SDS011;38063;53.210;6.504;2024-02-28T04:17:38;50.90;;;21.00;;
52057;SDS011;38063;53.210;6.504;2024-02-28T04:20:07;52.35;;;21.13;;
52057;SDS011;38063;53.210;6.504;2024-02-28T04:22:37;51.00;;;21.17;;
52057;SDS011;38063;53.210;6.504;2024-02-28T04:25:07;44.63;;;18.88;;
52057;SDS011;38063;53.210;6.504;2024-02-28T04:27:33;45.58;;;19.50;;
52057;SDS011;38063;53.210;6.504;2024-02-28T04:30:00;47.47;;;20.85;;
52057;SDS011;38063;53.210;6.504;2024-02-28T04:32:25;55.80;;;22.58;;
52057;SDS011;38063;53.210;6.504;2024-02-28T04:34:51;51.88;;;21.33;;
52057;SDS011;38063;53.210;6.504;2024-02-28T04:37:17;48.80;;;20.05;;
52057;SDS011;38063;53.210;6.504;2024-02-28T04:39:42;48.65;;;21.33;;
52057;SDS011;38063;53.210;6.504;2024-02-28T04:42:08;51.67;;;20.35;;
52057;SDS011;38063;53.210;6.504;2024-02-28T04:44:34;52.72;;;21.00;;
52057;SDS011;38063;53.210;6.504;2024-02-28T04:46:59;45.47;;;19.95;;
52057;SDS011;38063;53.210;6.504;2024-02-28T04:49:25;45.67;;;20.27;;
52057;SDS011;38063;53.210;6.504;2024-02-28T04:51:51;48.13;;;19.75;;
52057;SDS011;38063;53.210;6.504;2024-02-28T04:54:17;51.25;;;21.67;;
52057;SDS011;38063;53.210;6.504;2024-02-28T04:56:43;50.15;;;20.73;;
52057;SDS011;38063;53.210;6.504;2024-02-28T04:59:12;49.80;;;20.25;;
52057;SDS011;38063;53.210;6.504;2024-02-28T05:01:38;46.50;;;19.73;;
52057;SDS011;38063;53.210;6.504;2024-02-28T05:04:05;51.20;;;19.52;;
52057;SDS011;38063;53.210;6.504;2024-02-28T05:06:31;49.03;;;20.88;;
52057;SDS011;38063;53.210;6.504;2024-02-28T05:08:57;51.20;;;20.60;;
52057;SDS011;38063;53.210;6.504;2024-02-28T05:11:23;49.40;;;21.42;;
52057;SDS011;38063;53.210;6.504;2024-02-28T05:13:48;45.20;;;19.95;;
52057;SDS011;38063;53.210;6.504;2024-02-28T05:16:14;48.95;;;20.52;;
52057;SDS011;38063;53.210;6.504;2024-02-28T05:18:41;50.65;;;20.13;;
52057;SDS011;38063;53.210;6.504;2024-02-28T05:21:06;51.33;;;21.48;;
52057;SDS011;38063;53.210;6.504;2024-02-28T05:23:32;54.78;;;22.58;;
52057;SDS011;38063;53.210;6.504;2024-02-28T05:25:58;51.70;;;21.27;;
52057;SDS011;38063;53.210;6.504;2024-02-28T05:28:28;51.35;;;21.17;;
52057;SDS011;38063;53.210;6.504;2024-02-28T05:30:55;51.80;;;21.48;;
52057;SDS011;38063;53.210;6.504;2024-02-28T05:33:21;50.35;;;21.73;;
52057;SDS011;38063;53.210;6.504;2024-02-28T05:35:46;51.60;;;22.67;;
52057;SDS011;38063;53.210;6.504;2024-02-28T05:38:12;53.97;;;22.30;;
52057;SDS011;38063;53.210;6.504;2024-02-28T05:40:38;48.95;;;23.60;;
52057;SDS011;38063;53.210;6.504;2024-02-28T05:43:06;49.78;;;21.48;;
52057;SDS011;38063;53.210;6.504;2024-02-28T05:45:31;50.28;;;21.88;;
52057;SDS011;38063;53.210;6.504;2024-02-28T05:47:57;47.95;;;21.73;;
52057;SDS011;38063;53.210;6.504;2024-02-28T05:50:22;54.67;;;22.55;;
52057;SDS011;38063;53.210;6.504;2024-02-28T05:52:48;57.60;;;21.45;;
52057;SDS011;38063;53.210;6.504;2024-02-28T05:55:14;45.90;;;20.42;;
52057;SDS011;38063;53.210;6.504;2024-02-28T05:57:39;46.63;;;21.52;;
52057;SDS011;38063;53.210;6.504;2024-02-28T06:00:05;51.05;;;20.40;;
52057;SDS011;38063;53.210;6.504;2024-02-28T06:02:35;49.90;;;21.52;;
52057;SDS011;38063;53.210;6.504;2024-02-28T06:05:02;52.13;;;21.88;;
52057;SDS011;38063;53.210;6.504;2024-02-28T06:07:28;55.00;;;21.60;;
52057;SDS011;38063;53.210;6.504;2024-02-28T06:09:54;53.53;;;22.55;;
52057;SDS011;38063;53.210;6.504;2024-02-28T06:12:20;52.30;;;22.65;;
52057;SDS011;38063;53.210;6.504;2024-02-28T06:14:45;53.92;;;21.55;;
52057;SDS011;38063;53.210;6.504;2024-02-28T06:17:11;51.65;;;22.73;;
52057;SDS011;38063;53.210;6.504;2024-02-28T06:19:36;51.78;;;21.98;;
52057;SDS011;38063;53.210;6.504;2024-02-28T06:22:02;54.70;;;22.30;;
52057;SDS011;38063;53.210;6.504;2024-02-28T06:24:28;60.53;;;23.33;;
52057;SDS011;38063;53.210;6.504;2024-02-28T06:26:53;49.58;;;21.15;;
52057;SDS011;38063;53.210;6.504;2024-02-28T06:29:20;53.25;;;23.30;;
52057;SDS011;38063;53.210;6.504;2024-02-28T06:31:50;57.92;;;23.45;;
52057;SDS011;38063;53.210;6.504;2024-02-28T06:34:16;52.22;;;22.02;;
52057;SDS011;38063;53.210;6.504;2024-02-28T06:36:43;55.70;;;23.35;;
52057;SDS011;38063;53.210;6.504;2024-02-28T06:39:09;60.42;;;24.08;;
52057;SDS011;38063;53.210;6.504;2024-02-28T06:41:35;56.88;;;22.63;;
52057;SDS011;38063;53.210;6.504;2024-02-28T06:44:00;56.97;;;22.95;;
52057;SDS011;38063;53.210;6.504;2024-02-28T06:46:26;60.13;;;23.00;;
52057;SDS011;38063;53.210;6.504;2024-02-28T06:48:52;61.55;;;24.52;;
52057;SDS011;38063;53.210;6.504;2024-02-28T06:51:17;63.72;;;24.65;;
52057;SDS011;38063;53.210;6.504;2024-02-28T06:53:43;65.13;;;23.67;;
52057;SDS011;38063;53.210;6.504;2024-02-28T06:56:09;69.43;;;24.42;;
52057;SDS011;38063;53.210;6.504;2024-02-28T06:58:34;65.32;;;24.85;;
52057;SDS011;38063;53.210;6.504;2024-02-28T07:01:00;70.13;;;24.38;;
52057;SDS011;38063;53.210;6.504;2024-02-28T07:03:26;64.03;;;23.35;;
52057;SDS011;38063;53.210;6.504;2024-02-28T07:05:52;69.22;;;23.33;;
52057;SDS011;38063;53.210;6.504;2024-02-28T07:08:18;60.42;;;23.40;;
52057;SDS011;38063;53.210;6.504;2024-02-28T07:10:46;67.72;;;26.38;;
52057;SDS011;38063;53.210;6.504;2024-02-28T07:13:14;73.95;;;24.52;;
52057;SDS011;38063;53.210;6.504;2024-02-28T07:15:40;70.88;;;24.55;;
52057;SDS011;38063;53.210;6.504;2024-02-28T07:18:06;74.18;;;27.42;;
52057;SDS011;38063;53.210;6.504;2024-02-28T07:20:32;67.28;;;25.00;;
52057;SDS011;38063;53.210;6.504;2024-02-28T07:22:58;69.30;;;25.02;;
52057;SDS011;38063;53.210;6.504;2024-02-28T07:25:24;75.20;;;24.30;;
52057;SDS011;38063;53.210;6.504;2024-02-28T07:27:51;72.35;;;25.35;;
52057;SDS011;38063;53.210;6.504;2024-02-28T07:30:16;61.85;;;25.70;;
52057;SDS011;38063;53.210;6.504;2024-02-28T07:32:42;68.50;;;25.60;;
52057;SDS011;38063;53.210;6.504;2024-02-28T07:35:08;68.43;;;25.90;;
52057;SDS011;38063;53.210;6.504;2024-02-28T07:37:33;70.30;;;26.48;;
52057;SDS011;38063;53.210;6.504;2024-02-28T07:39:59;61.35;;;24.48;;
52057;SDS011;38063;53.210;6.504;2024-02-28T07:42:25;59.40;;;24.85;;
52057;SDS011;38063;53.210;6.504;2024-02-28T07:44:51;72.82;;;25.65;;
52057;SDS011;38063;53.210;6.504;2024-02-28T07:47:21;67.25;;;24.95;;
52057;SDS011;38063;53.210;6.504;2024-02-28T07:49:47;66.43;;;25.23;;
52057;SDS011;38063;53.210;6.504;2024-02-28T07:52:13;66.53;;;27.00;;
52057;SDS011;38063;53.210;6.504;2024-02-28T07:54:41;56.28;;;25.00;;
52057;SDS011;38063;53.210;6.504;2024-02-28T07:57:08;56.70;;;24.27;;
52057;SDS011;38063;53.210;6.504;2024-02-28T07:59:38;54.90;;;23.52;;
52057;SDS011;38063;53.210;6.504;2024-02-28T08:02:07;57.10;;;24.55;;
52057;SDS011;38063;53.210;6.504;2024-02-28T08:04:33;67.53;;;27.15;;
52057;SDS011;38063;53.210;6.504;2024-02-28T08:06:59;59.83;;;24.05;;
52057;SDS011;38063;53.210;6.504;2024-02-28T08:09:25;52.83;;;24.27;;
52057;SDS011;38063;53.210;6.504;2024-02-28T08:11:51;52.30;;;24.02;;
52057;SDS011;38063;53.210;6.504;2024-02-28T08:14:16;54.10;;;24.98;;
52057;SDS011;38063;53.210;6.504;2024-02-28T08:16:42;50.20;;;23.95;;
52057;SDS011;38063;53.210;6.504;2024-02-28T08:19:08;54.08;;;23.70;;
52057;SDS011;38063;53.210;6.504;2024-02-28T08:21:34;51.65;;;23.30;;
52057;SDS011;38063;53.210;6.504;2024-02-28T08:23:59;54.17;;;23.95;;
52057;SDS011;38063;53.210;6.504;2024-02-28T08:26:28;52.13;;;24.75;;
52057;SDS011;38063;53.210;6.504;2024-02-28T08:28:54;55.45;;;23.88;;
52057;SDS011;38063;53.210;6.504;2024-02-28T08:31:19;50.78;;;24.20;;
52057;SDS011;38063;53.210;6.504;2024-02-28T08:33:45;51.38;;;23.02;;
52057;SDS011;38063;53.210;6.504;2024-02-28T08:36:11;51.60;;;24.77;;
52057;SDS011;38063;53.210;6.504;2024-02-28T08:38:36;53.63;;;25.08;;
52057;SDS011;38063;53.210;6.504;2024-02-28T08:41:04;48.28;;;22.95;;
52057;SDS011;38063;53.210;6.504;2024-02-28T08:43:30;48.40;;;23.15;;
52057;SDS011;38063;53.210;6.504;2024-02-28T08:45:55;46.45;;;21.77;;
52057;SDS011;38063;53.210;6.504;2024-02-28T08:48:21;55.88;;;24.70;;
52057;SDS011;38063;53.210;6.504;2024-02-28T08:50:48;52.10;;;23.75;;
52057;SDS011;38063;53.210;6.504;2024-02-28T08:53:13;53.97;;;23.70;;
52057;SDS011;38063;53.210;6.504;2024-02-28T08:55:39;57.55;;;24.48;;
52057;SDS011;38063;53.210;6.504;2024-02-28T08:58:05;50.45;;;23.42;;
52057;SDS011;38063;53.210;6.504;2024-02-28T09:00:30;52.67;;;23.65;;
52057;SDS011;38063;53.210;6.504;2024-02-28T09:02:56;48.80;;;22.92;;
52057;SDS011;38063;53.210;6.504;2024-02-28T09:05:22;52.50;;;23.52;;
52057;SDS011;38063;53.210;6.504;2024-02-28T09:07:48;48.25;;;23.48;;
52057;SDS011;38063;53.210;6.504;2024-02-28T09:10:16;48.53;;;22.95;;
52057;SDS011;38063;53.210;6.504;2024-02-28T09:12:48;55.40;;;24.63;;
52057;SDS011;38063;53.210;6.504;2024-02-28T09:15:14;53.00;;;24.02;;
52057;SDS011;38063;53.210;6.504;2024-02-28T09:17:40;54.60;;;23.50;;
52057;SDS011;38063;53.210;6.504;2024-02-28T09:20:06;51.70;;;23.38;;
52057;SDS011;38063;53.210;6.504;2024-02-28T09:22:33;48.65;;;22.92;;
52057;SDS011;38063;53.210;6.504;2024-02-28T09:25:00;50.20;;;22.75;;
52057;SDS011;38063;53.210;6.504;2024-02-28T09:27:29;47.70;;;23.50;;
52057;SDS011;38063;53.210;6.504;2024-02-28T09:29:55;50.65;;;21.73;;
52057;SDS011;38063;53.210;6.504;2024-02-28T09:32:20;47.08;;;21.27;;
52057;SDS011;38063;53.210;6.504;2024-02-28T09:34:46;49.55;;;21.95;;
52057;SDS011;38063;53.210;6.504;2024-02-28T09:37:12;49.85;;;21.95;;
52057;SDS011;38063;53.210;6.504;2024-02-28T09:39:38;44.72;;;20.40;;
52057;SDS011;38063;53.210;6.504;2024-02-28T09:42:05;44.47;;;20.63;;
52057;SDS011;38063;53.210;6.504;2024-02-28T09:44:32;48.13;;;21.98;;
52057;SDS011;38063;53.210;6.504;2024-02-28T09:46:58;47.60;;;20.83;;
52057;SDS011;38063;53.210;6.504;2024-02-28T09:49:24;42.03;;;21.40;;
52057;SDS011;38063;53.210;6.504;2024-02-28T09:51:51;46.70;;;21.70;;
52057;SDS011;38063;53.210;6.504;2024-02-28T09:54:17;44.90;;;22.25;;
52057;SDS011;38063;53.210;6.504;2024-02-28T09:56:43;48.13;;;22.08;;
52057;SDS011;38063;53.210;6.504;2024-02-28T09:59:10;42.42;;;21.88;;
52057;SDS011;38063;53.210;6.504;2024-02-28T10:01:40;43.28;;;22.77;;
52057;SDS011;38063;53.210;6.504;2024-02-28T10:04:09;46.35;;;22.85;;
52057;SDS011;38063;53.210;6.504;2024-02-28T10:06:38;39.53;;;21.08;;
52057;SDS011;38063;53.210;6.504;2024-02-28T10:09:07;50.30;;;22.90;;
52057;SDS011;38063;53.210;6.504;2024-02-28T10:11:33;46.38;;;22.73;;
52057;SDS011;38063;53.210;6.504;2024-02-28T10:14:00;48.75;;;23.02;;
52057;SDS011;38063;53.210;6.504;2024-02-28T10:16:26;45.88;;;23.00;;
52057;SDS011;38063;53.210;6.504;2024-02-28T10:18:52;46.78;;;23.05;;
52057;SDS011;38063;53.210;6.504;2024-02-28T10:21:18;44.63;;;23.45;;
52057;SDS011;38063;53.210;6.504;2024-02-28T10:23:44;45.05;;;22.23;;
52057;SDS011;38063;53.210;6.504;2024-02-28T10:26:11;44.53;;;23.00;;
52057;SDS011;38063;53.210;6.504;2024-02-28T10:28:37;46.72;;;22.80;;
52057;SDS011;38063;53.210;6.504;2024-02-28T10:31:06;44.03;;;22.50;;
52057;SDS011;38063;53.210;6.504;2024-02-28T10:33:32;45.55;;;22.50;;
52057;SDS011;38063;53.210;6.504;2024-02-28T10:36:00;44.80;;;22.60;;
52057;SDS011;38063;53.210;6.504;2024-02-28T10:38:30;49.80;;;23.33;;
52057;SDS011;38063;53.210;6.504;2024-02-28T10:40:58;41.85;;;22.55;;
52057;SDS011;38063;53.210;6.504;2024-02-28T10:43:30;45.63;;;22.08;;
52057;SDS011;38063;53.210;6.504;2024-02-28T10:45:56;51.53;;;24.00;;
52057;SDS011;38063;53.210;6.504;2024-02-28T10:48:24;45.95;;;22.33;;
52057;SDS011;38063;53.210;6.504;2024-02-28T10:50:52;44.92;;;22.65;;
52057;SDS011;38063;53.210;6.504;2024-02-28T10:53:22;43.65;;;22.27;;
52057;SDS011;38063;53.210;6.504;2024-02-28T10:55:57;47.58;;;22.05;;
52057;SDS011;38063;53.210;6.504;2024-02-28T10:58:27;42.40;;;21.70;;
52057;SDS011;38063;53.210;6.504;2024-02-28T11:00:59;43.85;;;21.33;;
52057;SDS011;38063;53.210;6.504;2024-02-28T11:03:25;49.03;;;23.35;;
52057;SDS011;38063;53.210;6.504;2024-02-28T11:05:51;48.22;;;23.13;;
52057;SDS011;38063;53.210;6.504;2024-02-28T11:08:20;43.40;;;21.67;;
52057;SDS011;38063;53.210;6.504;2024-02-28T11:10:47;44.22;;;23.13;;
52057;SDS011;38063;53.210;6.504;2024-02-28T11:13:24;42.17;;;21.63;;
52057;SDS011;38063;53.210;6.504;2024-02-28T11:15:51;41.85;;;22.08;;
52057;SDS011;38063;53.210;6.504;2024-02-28T11:18:17;40.85;;;21.95;;
52057;SDS011;38063;53.210;6.504;2024-02-28T11:20:43;45.13;;;21.83;;
52057;SDS011;38063;53.210;6.504;2024-02-28T11:23:12;43.72;;;21.85;;
52057;SDS011;38063;53.210;6.504;2024-02-28T11:25:39;40.40;;;20.67;;
52057;SDS011;38063;53.210;6.504;2024-02-28T11:28:05;42.25;;;21.55;;
52057;SDS011;38063;53.210;6.504;2024-02-28T11:30:32;37.65;;;21.17;;
52057;SDS011;38063;53.210;6.504;2024-02-28T11:32:58;37.28;;;19.38;;
52057;SDS011;38063;53.210;6.504;2024-02-28T11:35:26;39.75;;;21.13;;
52057;SDS011;38063;53.210;6.504;2024-02-28T11:37:56;43.67;;;22.48;;
52057;SDS011;38063;53.210;6.504;2024-02-28T11:40:25;38.95;;;20.65;;
52057;SDS011;38063;53.210;6.504;2024-02-28T11:42:53;42.92;;;20.95;;
52057;SDS011;38063;53.210;6.504;2024-02-28T11:45:20;37.03;;;20.67;;
52057;SDS011;38063;53.210;6.504;2024-02-28T11:47:46;38.03;;;19.90;;
52057;SDS011;38063;53.210;6.504;2024-02-28T11:50:12;36.50;;;19.10;;
52057;SDS011;38063;53.210;6.504;2024-02-28T11:52:39;38.53;;;20.77;;
52057;SDS011;38063;53.210;6.504;2024-02-28T11:55:06;40.70;;;18.27;;
52057;SDS011;38063;53.210;6.504;2024-02-28T11:57:32;40.30;;;19.88;;
52057;SDS011;38063;53.210;6.504;2024-02-28T12:00:05;42.10;;;20.27;;
52057;SDS011;38063;53.210;6.504;2024-02-28T12:02:32;37.38;;;19.40;;
52057;SDS011;38063;53.210;6.504;2024-02-28T12:05:01;33.08;;;19.17;;
52057;SDS011;38063;53.210;6.504;2024-02-28T12:07:31;39.45;;;20.48;;
52057;SDS011;38063;53.210;6.504;2024-02-28T12:09:57;39.92;;;20.75;;
52057;SDS011;38063;53.210;6.504;2024-02-28T12:12:23;36.35;;;19.42;;
52057;SDS011;38063;53.210;6.504;2024-02-28T12:14:50;41.33;;;21.83;;
52057;SDS011;38063;53.210;6.504;2024-02-28T12:17:15;39.80;;;20.70;;
52057;SDS011;38063;53.210;6.504;2024-02-28T12:19:41;38.38;;;20.08;;
52057;SDS011;38063;53.210;6.504;2024-02-28T12:22:07;39.67;;;20.27;;
52057;SDS011;38063;53.210;6.504;2024-02-28T12:24:33;41.58;;;21.27;;
52057;SDS011;38063;53.210;6.504;2024-02-28T12:26:59;38.13;;;20.83;;
52057;SDS011;38063;53.210;6.504;2024-02-28T12:29:25;37.80;;;20.73;;
52057;SDS011;38063;53.210;6.504;2024-02-28T12:31:50;37.75;;;21.38;;
52057;SDS011;38063;53.210;6.504;2024-02-28T12:34:16;41.42;;;22.13;;
52057;SDS011;38063;53.210;6.504;2024-02-28T12:36:42;37.38;;;21.88;;
52057;SDS011;38063;53.210;6.504;2024-02-28T12:39:08;40.83;;;22.58;;
52057;SDS011;38063;53.210;6.504;2024-02-28T12:41:39;39.17;;;22.10;;
52057;SDS011;38063;53.210;6.504;2024-02-28T12:44:05;36.78;;;21.38;;
52057;SDS011;38063;53.210;6.504;2024-02-28T12:46:32;36.60;;;21.70;;
52057;SDS011;38063;53.210;6.504;2024-02-28T12:48:58;40.55;;;21.48;;
52057;SDS011;38063;53.210;6.504;2024-02-28T12:51:43;34.90;;;22.17;;
52057;SDS011;38063;53.210;6.504;2024-02-28T12:54:10;36.83;;;21.30;;
52057;SDS011;38063;53.210;6.504;2024-02-28T12:56:38;34.30;;;21.60;;
52057;SDS011;38063;53.210;6.504;2024-02-28T12:59:04;36.40;;;20.48;;
52057;SDS011;38063;53.210;6.504;2024-02-28T13:01:32;34.25;;;20.45;;
52057;SDS011;38063;53.210;6.504;2024-02-28T13:03:58;42.38;;;22.25;;
52057;SDS011;38063;53.210;6.504;2024-02-28T13:06:24;38.78;;;20.92;;
52057;SDS011;38063;53.210;6.504;2024-02-28T13:08:50;35.95;;;20.77;;
52057;SDS011;38063;53.210;6.504;2024-02-28T13:11:19;35.60;;;21.60;;
52057;SDS011;38063;53.210;6.504;2024-02-28T13:13:46;35.53;;;21.00;;
52057;SDS011;38063;53.210;6.504;2024-02-28T13:16:16;33.58;;;20.08;;
52057;SDS011;38063;53.210;6.504;2024-02-28T13:18:42;37.42;;;20.90;;
52057;SDS011;38063;53.210;6.504;2024-02-28T13:21:08;34.50;;;19.73;;
52057;SDS011;38063;53.210;6.504;2024-02-28T13:23:34;32.70;;;19.52;;
52057;SDS011;38063;53.210;6.504;2024-02-28T13:26:00;34.88;;;19.50;;
52057;SDS011;38063;53.210;6.504;2024-02-28T13:28:27;34.03;;;21.33;;
52057;SDS011;38063;53.210;6.504;2024-02-28T13:30:59;33.72;;;19.95;;
52057;SDS011;38063;53.210;6.504;2024-02-28T13:33:25;33.75;;;19.48;;
52057;SDS011;38063;53.210;6.504;2024-02-28T13:35:51;31.70;;;19.35;;
52057;SDS011;38063;53.210;6.504;2024-02-28T13:38:18;33.75;;;19.63;;
52057;SDS011;38063;53.210;6.504;2024-02-28T13:40:44;33.05;;;19.55;;
52057;SDS011;38063;53.210;6.504;2024-02-28T13:43:11;30.58;;;18.20;;
52057;SDS011;38063;53.210;6.504;2024-02-28T13:45:45;32.28;;;18.98;;
52057;SDS011;38063;53.210;6.504;2024-02-28T13:48:16;33.53;;;19.25;;
52057;SDS011;38063;53.210;6.504;2024-02-28T13:50:43;31.17;;;19.17;;
52057;SDS011;38063;53.210;6.504;2024-02-28T13:53:10;34.97;;;19.70;;
52057;SDS011;38063;53.210;6.504;2024-02-28T13:55:37;31.77;;;20.63;;
52057;SDS011;38063;53.210;6.504;2024-02-28T13:58:03;33.60;;;19.65;;
52057;SDS011;38063;53.210;6.504;2024-02-28T14:00:30;36.20;;;19.77;;
52057;SDS011;38063;53.210;6.504;2024-02-28T14:02:55;31.75;;;19.17;;
52057;SDS011;38063;53.210;6.504;2024-02-28T14:05:21;30.42;;;20.20;;
52057;SDS011;38063;53.210;6.504;2024-02-28T14:07:47;32.72;;;19.63;;
52057;SDS011;38063;53.210;6.504;2024-02-28T14:10:12;30.08;;;19.67;;
52057;SDS011;38063;53.210;6.504;2024-02-28T14:12:41;30.90;;;20.65;;
52057;SDS011;38063;53.210;6.504;2024-02-28T14:15:07;32.10;;;19.98;;
52057;SDS011;38063;53.210;6.504;2024-02-28T14:17:34;32.75;;;20.33;;